createdAt,value
2019-05-20T00:00:03.291Z,12.8
2019-05-20T00:05:03.391Z,12.8
2019-05-20T00:10:02.946Z,12.8
2019-05-20T00:15:03.428Z,12.8
2019-05-20T00:20:03.003Z,12.8
2019-05-20T00:25:02.540Z,12.8
2019-05-20T00:30:03.079Z,13.1
2019-05-20T00:35:02.638Z,13.1
2019-05-20T00:40:03.214Z,13.1
2019-05-20T00:45:02.736Z,13.1
2019-05-20T00:50:03.389Z,13.1
2019-05-20T00:55:02.827Z,13.1
2019-05-20T01:00:03.482Z,13.3
2019-05-20T01:05:03.095Z,13.3
2019-05-20T01:10:02.604Z,13.5
2019-05-20T01:15:03.039Z,13.5
2019-05-20T01:20:02.559Z,13.5
2019-05-20T01:25:03.122Z,13.5
2019-05-20T01:30:02.633Z,13.6
2019-05-20T01:35:03.181Z,13.6
2019-05-20T01:40:02.715Z,13.6
2019-05-20T01:45:03.248Z,13.6
2019-05-20T01:50:02.659Z,13.6
2019-05-20T01:55:03.112Z,13.6
2019-05-20T02:00:02.642Z,13.6
2019-05-20T02:05:03.180Z,13.6
2019-05-20T02:10:02.728Z,13.6
2019-05-20T02:15:03.251Z,13.6
2019-05-20T02:20:02.789Z,13.6
2019-05-20T02:25:03.266Z,13.6
2019-05-20T02:30:02.850Z,13.5
2019-05-20T02:35:02.558Z,13.6
2019-05-20T02:40:03.030Z,13.6
2019-05-20T02:45:02.526Z,13.6
2019-05-20T02:50:03.065Z,13.6
2019-05-20T02:55:02.588Z,13.6
2019-05-20T03:00:03.167Z,13.6
2019-05-20T03:05:02.685Z,13.6
2019-05-20T03:10:03.220Z,13.6
2019-05-20T03:15:02.715Z,13.6
2019-05-20T03:20:03.277Z,13.6
2019-05-20T03:25:02.738Z,13.6
2019-05-20T03:30:03.493Z,13.5
2019-05-20T03:35:03.052Z,13.3
2019-05-20T03:40:02.597Z,13.3
2019-05-20T03:45:03.138Z,13.3
2019-05-20T03:50:02.700Z,13.5
2019-05-20T03:55:03.208Z,13.6
2019-05-20T04:00:02.739Z,13.6
2019-05-20T04:05:03.568Z,13.6
2019-05-20T04:10:03.230Z,13.5
2019-05-20T04:15:02.731Z,13.6
2019-05-20T04:20:03.281Z,13.6
2019-05-20T04:25:02.793Z,13.6
2019-05-20T04:30:03.147Z,13.6
2019-05-20T04:35:20.443Z,13.6
2019-05-20T04:40:03.391Z,13.6
2019-05-20T04:45:02.910Z,13.5
2019-05-20T04:50:03.474Z,13.5
2019-05-20T04:55:02.979Z,13.6
2019-05-20T05:05:02.316Z,13.6
2019-05-20T05:10:02.876Z,13.6
2019-05-20T05:15:07.328Z,13.6
2019-05-20T05:20:02.460Z,13.6
2019-05-20T05:25:02.984Z,13.6
2019-05-20T05:30:02.493Z,13.5
2019-05-20T05:35:03.509Z,13.6
2019-05-20T05:40:07.455Z,13.6
2019-05-20T05:45:02.600Z,13.6
2019-05-20T05:50:03.142Z,13.6
2019-05-20T05:55:02.678Z,13.8
2019-05-20T06:00:03.361Z,13.6
2019-05-20T06:05:02.831Z,13.8
2019-05-20T06:10:03.350Z,13.6
2019-05-20T06:15:02.909Z,13.6
2019-05-20T06:20:03.459Z,13.6
2019-05-20T06:25:03.535Z,14.0
2019-05-20T06:30:03.216Z,14.3
2019-05-20T06:35:02.817Z,14.1
2019-05-20T06:40:03.413Z,14.3
2019-05-20T06:45:02.908Z,14.1
2019-05-20T06:50:03.441Z,14.0
2019-05-20T06:55:03.065Z,14.3
2019-05-20T07:00:02.590Z,14.3
2019-05-20T07:05:03.072Z,14.3
2019-05-20T07:10:02.570Z,14.3
2019-05-20T07:15:03.063Z,14.5
2019-05-20T07:20:02.728Z,15.1
2019-05-20T07:25:03.187Z,15.6
2019-05-20T07:30:02.692Z,15.0
2019-05-20T07:35:03.241Z,14.8
2019-05-20T07:40:02.706Z,15.1
2019-05-20T07:45:03.230Z,15.3
2019-05-20T07:50:01.922Z,15.1
2019-05-20T07:55:02.563Z,14.8
2019-05-20T08:00:03.012Z,15.5
2019-05-20T08:05:02.945Z,15.8
2019-05-20T08:10:02.917Z,15.3
2019-05-20T08:15:03.406Z,15.1
2019-05-20T08:20:02.995Z,15.5
2019-05-20T08:25:02.459Z,15.8
2019-05-20T08:30:02.922Z,15.8
2019-05-20T08:35:03.418Z,16.0
2019-05-20T08:40:03.048Z,15.8
2019-05-20T08:45:03.469Z,15.8
2019-05-20T08:50:06.368Z,15.8
2019-05-20T08:55:03.299Z,16.2
2019-05-20T09:00:03.316Z,15.8
2019-05-20T09:05:03.051Z,16.2
2019-05-20T09:10:02.567Z,16.3
2019-05-20T09:15:03.080Z,16.2
2019-05-20T09:20:02.732Z,16.3
2019-05-20T09:25:03.541Z,16.3
2019-05-20T09:30:03.328Z,16.7
2019-05-20T09:35:02.945Z,17.0
2019-05-20T09:40:03.459Z,17.1
2019-05-20T09:45:03.336Z,16.7
2019-05-20T09:50:02.904Z,16.7
2019-05-20T09:55:03.493Z,16.6
2019-05-20T10:00:02.941Z,17.0
2019-05-20T10:05:03.920Z,17.0
2019-05-20T10:10:02.632Z,16.7
2019-05-20T10:15:03.070Z,17.1
2019-05-20T10:20:02.636Z,16.7
2019-05-20T10:25:03.177Z,17.2
2019-05-20T10:30:02.810Z,17.2
2019-05-20T10:35:02.490Z,17.1
2019-05-20T10:40:03.035Z,16.7
2019-05-20T10:45:02.820Z,17.2
2019-05-20T10:50:02.541Z,17.1
2019-05-20T10:55:03.060Z,17.1
2019-05-20T11:00:01.942Z,17.5
2019-05-20T11:05:03.440Z,17.3
2019-05-20T11:10:02.929Z,17.3
2019-05-20T11:15:03.422Z,16.7
2019-05-20T11:20:03.008Z,16.7
2019-05-20T11:25:02.522Z,17.2
2019-05-20T11:30:04.691Z,17.1
2019-05-20T11:35:03.333Z,17.1
2019-05-20T11:40:04.033Z,17.0
2019-05-20T11:45:03.188Z,17.1
2019-05-20T11:50:03.265Z,17.2
2019-05-20T11:55:03.020Z,17.3
2019-05-20T12:00:02.537Z,17.7
2019-05-20T12:05:03.121Z,17.7
2019-05-20T12:10:02.782Z,17.8
2019-05-20T12:15:04.310Z,17.7
2019-05-20T12:20:04.684Z,17.7
2019-05-20T12:25:02.961Z,17.2
2019-05-20T12:30:02.495Z,17.7
2019-05-20T12:35:02.972Z,17.7
2019-05-20T12:40:06.961Z,18.1
2019-05-20T12:45:03.282Z,17.8
2019-05-20T12:50:02.767Z,17.7
2019-05-20T12:55:08.170Z,17.7
2019-05-20T13:00:02.936Z,17.5
2019-05-20T13:05:03.509Z,17.7
2019-05-20T13:10:03.498Z,17.7
2019-05-20T13:15:03.064Z,18.2
2019-05-20T13:20:02.560Z,19.5
2019-05-20T13:25:03.109Z,18.2
2019-05-20T13:30:02.623Z,17.8
2019-05-20T13:35:03.163Z,17.8
2019-05-20T13:40:03.553Z,17.3
2019-05-20T13:45:03.139Z,17.3
2019-05-20T13:50:02.661Z,17.1
2019-05-20T13:55:03.221Z,17.2
2019-05-20T14:00:02.784Z,17.8
2019-05-20T14:05:03.372Z,17.7
2019-05-20T14:10:02.887Z,18.2
2019-05-20T14:15:03.444Z,18.7
2019-05-20T14:20:03.076Z,19.1
2019-05-20T14:25:02.720Z,18.2
2019-05-20T14:30:03.540Z,18.6
2019-05-20T14:35:03.170Z,19.1
2019-05-20T14:40:02.666Z,19.2
2019-05-20T14:45:03.234Z,19.5
2019-05-20T14:50:02.756Z,18.8
2019-05-20T14:55:03.208Z,18.7
2019-05-20T15:00:02.712Z,18.2
2019-05-20T15:05:03.265Z,18.2
2019-05-20T15:10:02.783Z,18.5
2019-05-20T15:15:03.318Z,18.6
2019-05-20T15:20:02.843Z,18.5
2019-05-20T15:25:03.389Z,19.2
2019-05-20T15:30:02.952Z,18.7
2019-05-20T15:35:02.543Z,18.8
2019-05-20T15:40:03.114Z,19.0
2019-05-20T15:45:02.547Z,19.2
2019-05-20T15:50:05.537Z,18.8
2019-05-20T15:55:02.788Z,18.8
2019-05-20T16:00:03.291Z,18.5
2019-05-20T16:05:02.823Z,18.5
2019-05-20T16:10:03.368Z,18.2
2019-05-20T16:15:05.078Z,18.2
2019-05-20T16:20:02.616Z,18.6
2019-05-20T16:25:03.163Z,18.2
2019-05-20T16:30:06.674Z,18.5
2019-05-20T16:35:02.981Z,18.1
2019-05-20T16:40:02.661Z,17.7
2019-05-20T16:45:03.252Z,17.7
2019-05-20T16:50:02.848Z,18.1
2019-05-20T16:55:03.382Z,17.7
2019-05-20T17:00:02.874Z,17.8
2019-05-20T17:05:03.452Z,17.8
2019-05-20T17:10:03.074Z,17.8
2019-05-20T17:15:02.581Z,17.8
2019-05-20T17:20:03.126Z,17.5
2019-05-20T17:25:02.650Z,17.3
2019-05-20T17:30:03.919Z,17.2
2019-05-20T17:35:02.711Z,17.2
2019-05-20T17:40:03.261Z,17.3
2019-05-20T17:45:02.777Z,17.2
2019-05-20T17:50:03.358Z,17.0
2019-05-20T17:55:02.837Z,16.7
2019-05-20T18:00:03.306Z,16.7
2019-05-20T18:05:02.799Z,16.7
2019-05-20T18:10:03.308Z,16.6
2019-05-20T18:15:02.772Z,16.6
2019-05-20T18:20:03.365Z,16.7
2019-05-20T18:25:02.987Z,16.6
2019-05-20T18:30:02.471Z,16.3
2019-05-20T18:35:03.094Z,16.6
2019-05-20T18:40:13.381Z,16.2
2019-05-20T18:45:02.779Z,16.0
2019-05-20T18:50:03.325Z,15.8
2019-05-20T18:55:02.859Z,15.8
2019-05-20T19:00:04.013Z,15.8
2019-05-20T19:05:02.890Z,15.6
2019-05-20T19:10:03.814Z,15.3
2019-05-20T19:15:03.372Z,15.3
2019-05-20T19:20:02.886Z,15.1
2019-05-20T19:25:04.695Z,15.1
2019-05-20T19:30:02.556Z,15.0
2019-05-20T19:35:03.106Z,15.0
2019-05-20T19:40:02.938Z,14.6
2019-05-20T19:45:05.780Z,14.8
2019-05-20T19:50:03.391Z,14.6
2019-05-20T19:55:02.970Z,14.6
2019-05-20T20:00:02.474Z,14.6
2019-05-20T20:05:03.011Z,14.6
2019-05-20T20:10:02.500Z,14.5
2019-05-20T20:15:03.087Z,14.5
2019-05-20T20:20:02.805Z,14.5
2019-05-20T20:25:03.348Z,14.5
2019-05-20T20:30:02.868Z,14.5
2019-05-20T20:35:03.540Z,14.5
2019-05-20T20:40:03.169Z,14.5
2019-05-20T20:45:02.770Z,14.3
2019-05-20T20:50:03.310Z,14.3
2019-05-20T20:55:02.828Z,14.3
2019-05-20T21:00:03.450Z,14.3
2019-05-20T21:05:03.033Z,14.1
2019-05-20T21:10:02.595Z,14.3
2019-05-20T21:15:03.251Z,14.1
2019-05-20T21:20:02.776Z,14.1
2019-05-20T21:25:03.349Z,13.6
2019-05-20T21:30:02.822Z,13.6
2019-05-20T21:35:03.402Z,13.6
2019-05-20T21:40:02.938Z,13.5
2019-05-20T21:45:03.542Z,13.3
2019-05-20T21:50:03.055Z,13.1
2019-05-20T21:55:02.598Z,13.1
2019-05-20T22:00:03.160Z,13.1
2019-05-20T22:05:02.640Z,13.1
2019-05-20T22:10:03.209Z,13.1
2019-05-20T22:15:02.720Z,12.8
2019-05-20T22:20:03.260Z,12.8
2019-05-20T22:25:02.780Z,12.8
2019-05-20T22:30:03.322Z,12.8
2019-05-20T22:35:02.854Z,12.8
2019-05-20T22:40:03.400Z,12.8
2019-05-20T22:45:02.910Z,12.8
2019-05-20T22:50:03.475Z,13.1
2019-05-20T22:55:02.987Z,13.1
2019-05-20T23:00:07.531Z,13.1
2019-05-20T23:05:03.045Z,13.1
2019-05-20T23:10:02.515Z,12.8
2019-05-20T23:15:03.163Z,12.6
2019-05-20T23:20:02.745Z,12.6
2019-05-20T23:25:03.285Z,12.6
2019-05-20T23:30:02.807Z,12.5
2019-05-20T23:35:03.351Z,12.6
2019-05-20T23:40:02.868Z,12.6
2019-05-20T23:45:03.443Z,12.6
2019-05-20T23:50:02.957Z,12.5
2019-05-20T23:55:03.608Z,12.5
